createdAt,value
2023-04-16T00:01:51.532Z,8.08
2023-04-16T00:04:18.516Z,8.05
2023-04-16T00:06:45.269Z,8.03
2023-04-16T00:09:12.174Z,8.02
2023-04-16T00:11:38.919Z,7.99
2023-04-16T00:14:05.885Z,7.99
2023-04-16T00:16:33.135Z,7.99
2023-04-16T00:18:59.905Z,8.05
2023-04-16T00:21:26.764Z,8.04
2023-04-16T00:23:53.607Z,8.07
2023-04-16T00:26:20.734Z,8.07
2023-04-16T00:28:47.461Z,8.08
2023-04-16T00:31:14.383Z,8.06
2023-04-16T00:33:41.192Z,8.04
2023-04-16T00:36:08.064Z,8.02
2023-04-16T00:38:35.204Z,8.00
2023-04-16T00:41:02.068Z,8.00
2023-04-16T00:43:28.884Z,7.97
2023-04-16T00:45:57.451Z,7.93
2023-04-16T00:48:24.824Z,7.93
2023-04-16T00:50:51.738Z,7.94
2023-04-16T00:53:18.526Z,7.98
2023-04-16T00:55:46.028Z,7.97
2023-04-16T00:58:13.142Z,7.98
2023-04-16T01:00:39.951Z,7.98
2023-04-16T01:03:06.959Z,8.01
2023-04-16T01:05:33.857Z,8.02
2023-04-16T01:08:03.397Z,8.04
2023-04-16T01:10:31.171Z,8.07
2023-04-16T01:12:57.979Z,8.06
2023-04-16T01:15:24.738Z,8.07
2023-04-16T01:17:51.786Z,8.08
2023-04-16T01:20:18.770Z,8.10
2023-04-16T01:22:46.979Z,8.09
2023-04-16T01:25:15.555Z,8.08
2023-04-16T01:27:42.347Z,8.08
2023-04-16T01:30:09.531Z,8.08
2023-04-16T01:32:36.329Z,8.07
2023-04-16T01:35:03.335Z,8.00
2023-04-16T01:37:31.020Z,7.99
2023-04-16T01:39:58.007Z,7.99
2023-04-16T01:42:24.749Z,7.99
2023-04-16T01:44:51.458Z,8.01
2023-04-16T01:47:18.446Z,8.04
2023-04-16T01:49:48.217Z,8.03
2023-04-16T01:52:15.100Z,8.03
2023-04-16T01:54:42.024Z,8.02
2023-04-16T01:57:09.261Z,8.01
2023-04-16T01:59:36.001Z,8.00
2023-04-16T02:02:11.333Z,8.01
2023-04-16T02:04:39.535Z,8.04
2023-04-16T02:07:06.994Z,8.04
2023-04-16T02:09:38.457Z,8.01
2023-04-16T02:12:06.403Z,8.00
2023-04-16T02:14:33.768Z,8.00
2023-04-16T02:17:01.217Z,7.98
2023-04-16T02:19:27.943Z,7.97
2023-04-16T02:21:55.226Z,7.99
2023-04-16T02:24:22.169Z,7.97
2023-04-16T02:26:48.899Z,7.99
2023-04-16T02:29:16.651Z,7.98
2023-04-16T02:31:43.535Z,7.97
2023-04-16T02:34:10.639Z,7.96
2023-04-16T02:36:37.658Z,7.93
2023-04-16T02:39:05.445Z,7.92
2023-04-16T02:41:32.227Z,7.90
2023-04-16T02:43:59.083Z,7.89
2023-04-16T02:46:25.931Z,7.91
2023-04-16T02:48:52.824Z,7.91
2023-04-16T02:51:19.542Z,7.89
2023-04-16T02:53:46.266Z,7.89
2023-04-16T02:56:13.230Z,7.88
2023-04-16T02:58:40.026Z,7.89
2023-04-16T03:01:06.867Z,7.92
2023-04-16T03:03:33.746Z,7.90
2023-04-16T03:06:00.766Z,7.91
2023-04-16T03:08:27.656Z,7.92
2023-04-16T03:10:54.360Z,7.92
2023-04-16T03:13:21.194Z,7.93
2023-04-16T03:15:49.720Z,7.95
2023-04-16T03:18:16.812Z,7.93
2023-04-16T03:20:43.612Z,7.93
2023-04-16T03:23:10.357Z,7.94
2023-04-16T03:25:37.157Z,7.95
2023-04-16T03:28:04.215Z,7.96
2023-04-16T03:30:31.512Z,7.98
2023-04-16T03:32:58.413Z,8.00
2023-04-16T03:35:25.172Z,8.00
2023-04-16T03:37:52.023Z,8.02
2023-04-16T03:40:18.751Z,8.04
2023-04-16T03:42:45.454Z,8.06
2023-04-16T03:45:12.432Z,8.07
2023-04-16T03:47:39.423Z,8.08
2023-04-16T03:50:06.799Z,8.07
2023-04-16T03:52:33.530Z,8.06
2023-04-16T03:55:00.286Z,8.05
2023-04-16T03:57:27.273Z,8.04
2023-04-16T03:59:54.009Z,8.04
2023-04-16T04:02:21.271Z,8.03
2023-04-16T04:04:48.291Z,8.00
2023-04-16T04:07:16.388Z,7.99
2023-04-16T04:09:43.260Z,7.99
2023-04-16T04:12:10.271Z,7.98
2023-04-16T04:14:40.165Z,7.98
2023-04-16T04:17:08.143Z,7.98
2023-04-16T04:19:34.948Z,7.95
2023-04-16T04:22:01.694Z,7.93
2023-04-16T04:24:28.420Z,7.93
2023-04-16T04:26:55.146Z,7.91
2023-04-16T04:29:21.956Z,7.91
2023-04-16T04:31:48.755Z,7.92
2023-04-16T04:34:15.752Z,7.92
2023-04-16T04:36:42.456Z,7.90
2023-04-16T04:39:09.535Z,7.90
2023-04-16T04:41:36.442Z,7.91
2023-04-16T04:44:03.314Z,7.89
2023-04-16T04:46:30.070Z,7.88
2023-04-16T04:48:56.927Z,7.86
2023-04-16T04:51:23.730Z,7.86
2023-04-16T04:53:50.642Z,7.88
2023-04-16T04:56:17.389Z,7.89
2023-04-16T04:58:44.345Z,7.89
2023-04-16T05:01:11.221Z,7.89
2023-04-16T05:03:38.326Z,7.90
2023-04-16T05:06:05.696Z,7.91
2023-04-16T05:08:32.485Z,7.89
2023-04-16T05:10:59.247Z,7.88
2023-04-16T05:13:26.239Z,7.89
2023-04-16T05:15:53.127Z,7.87
2023-04-16T05:18:19.851Z,7.89
2023-04-16T05:20:46.610Z,7.91
2023-04-16T05:23:13.342Z,7.90
2023-04-16T05:25:40.082Z,7.90
2023-04-16T05:28:07.181Z,7.93
2023-04-16T05:30:33.954Z,7.96
2023-04-16T05:33:00.827Z,7.97
2023-04-16T05:35:27.939Z,7.96
2023-04-16T05:37:54.738Z,7.99
2023-04-16T05:40:21.502Z,8.00
2023-04-16T05:42:48.361Z,7.98
2023-04-16T05:45:15.233Z,7.99
2023-04-16T05:47:41.989Z,8.00
2023-04-16T05:50:09.168Z,8.04
2023-04-16T05:52:35.920Z,8.06
2023-04-16T05:55:02.719Z,8.08
2023-04-16T05:57:30.148Z,8.07
2023-04-16T05:59:56.973Z,8.08
2023-04-16T06:02:23.978Z,8.09
2023-04-16T06:04:50.859Z,8.09
2023-04-16T06:07:17.578Z,8.10
2023-04-16T06:09:45.062Z,8.12
2023-04-16T06:12:11.968Z,8.13
2023-04-16T06:14:38.738Z,8.15
2023-04-16T06:17:05.455Z,8.15
2023-04-16T06:19:32.228Z,8.17
2023-04-16T06:21:59.193Z,8.18
2023-04-16T06:24:26.073Z,8.19
2023-04-16T06:26:52.969Z,8.23
2023-04-16T06:29:20.412Z,8.25
2023-04-16T06:31:48.633Z,8.26
2023-04-16T06:34:16.417Z,8.29
2023-04-16T06:36:43.261Z,8.30
2023-04-16T06:39:10.220Z,8.31
2023-04-16T06:41:37.243Z,8.34
2023-04-16T06:44:04.023Z,8.37
2023-04-16T06:46:30.998Z,8.37
2023-04-16T06:48:57.707Z,8.38
2023-04-16T06:51:24.541Z,8.40
2023-04-16T06:53:51.284Z,8.40
2023-04-16T06:56:18.038Z,8.41
2023-04-16T06:58:44.776Z,8.43
2023-04-16T07:01:11.655Z,8.44
2023-04-16T07:03:38.887Z,8.49
2023-04-16T07:06:05.977Z,8.50
2023-04-16T07:08:32.789Z,8.52
2023-04-16T07:10:59.846Z,8.55
2023-04-16T07:13:26.676Z,8.59
2023-04-16T07:15:54.266Z,8.63
2023-04-16T07:18:21.555Z,8.64
2023-04-16T07:20:48.392Z,8.63
2023-04-16T07:23:15.116Z,8.65
2023-04-16T07:25:42.468Z,8.67
2023-04-16T07:28:09.302Z,8.72
2023-04-16T07:30:36.902Z,8.75
2023-04-16T07:33:04.264Z,8.77
2023-04-16T07:35:32.070Z,8.81
2023-04-16T07:37:59.055Z,8.84
2023-04-16T07:40:26.311Z,8.88
2023-04-16T07:42:53.097Z,8.89
2023-04-16T07:45:19.910Z,8.91
2023-04-16T07:47:46.811Z,8.94
2023-04-16T07:50:13.675Z,9.00
2023-04-16T07:52:42.431Z,9.02
2023-04-16T07:55:09.305Z,9.06
2023-04-16T07:57:36.092Z,9.09
2023-04-16T08:00:05.068Z,9.11
2023-04-16T08:02:32.205Z,9.15
2023-04-16T08:04:59.634Z,9.19
2023-04-16T08:07:26.389Z,9.25
2023-04-16T08:09:53.300Z,9.27
2023-04-16T08:12:21.082Z,9.31
2023-04-16T08:14:48.174Z,9.33
2023-04-16T08:17:15.791Z,9.39
2023-04-16T08:19:44.853Z,9.45
2023-04-16T08:22:14.852Z,9.49
2023-04-16T08:24:41.672Z,9.55
2023-04-16T08:27:18.482Z,9.60
2023-04-16T08:29:47.673Z,9.65
2023-04-16T08:32:14.539Z,9.69
2023-04-16T08:34:42.156Z,9.73
2023-04-16T08:37:09.448Z,9.77
2023-04-16T08:39:36.396Z,9.80
2023-04-16T08:42:06.165Z,9.83
2023-04-16T08:44:37.619Z,9.89
2023-04-16T08:47:09.132Z,9.93
2023-04-16T08:49:36.931Z,9.96
2023-04-16T08:52:09.027Z,10.02
2023-04-16T08:55:02.731Z,10.07
2023-04-16T08:57:38.809Z,10.07
2023-04-16T09:00:07.985Z,10.14
2023-04-16T09:02:35.129Z,10.20
2023-04-16T09:05:05.167Z,10.24
2023-04-16T09:07:33.525Z,10.26
2023-04-16T09:10:01.802Z,10.31
2023-04-16T09:12:30.357Z,10.37
2023-04-16T09:14:59.940Z,10.41
2023-04-16T09:17:27.380Z,10.43
2023-04-16T09:19:54.969Z,10.50
2023-04-16T09:22:21.747Z,10.56
2023-04-16T09:24:48.523Z,10.63
2023-04-16T09:27:16.592Z,10.67
2023-04-16T09:29:43.503Z,10.73
2023-04-16T09:32:12.052Z,10.81
2023-04-16T09:35:00.684Z,10.87
2023-04-16T09:37:32.437Z,10.92
2023-04-16T09:40:04.098Z,10.97
2023-04-16T09:42:33.534Z,11.02
2023-04-16T09:45:02.655Z,11.07
2023-04-16T09:47:44.885Z,11.13
2023-04-16T09:50:19.864Z,11.17
2023-04-16T09:52:53.047Z,11.21
2023-04-16T09:55:23.774Z,11.24
2023-04-16T09:57:59.000Z,11.29
2023-04-16T10:00:25.887Z,11.31
2023-04-16T10:03:04.977Z,11.33
2023-04-16T10:05:31.790Z,11.36
2023-04-16T10:08:02.215Z,11.36
2023-04-16T10:10:29.807Z,11.38
2023-04-16T10:12:56.623Z,11.42
2023-04-16T10:15:23.481Z,11.44
2023-04-16T10:17:51.502Z,11.48
2023-04-16T10:20:19.237Z,11.51
2023-04-16T10:22:46.293Z,11.53
2023-04-16T10:25:13.491Z,11.56
2023-04-16T10:27:41.410Z,11.60
2023-04-16T10:30:11.057Z,11.62
2023-04-16T10:32:38.845Z,11.63
2023-04-16T10:35:06.314Z,11.66
2023-04-16T10:37:33.265Z,11.70
2023-04-16T10:40:00.202Z,11.72
2023-04-16T10:42:27.620Z,11.74
2023-04-16T10:44:54.487Z,11.76
2023-04-16T10:47:24.840Z,11.78
2023-04-16T10:49:52.027Z,11.81
2023-04-16T10:52:19.002Z,11.83
2023-04-16T10:54:48.197Z,11.86
2023-04-16T10:57:20.100Z,11.86
2023-04-16T10:59:49.223Z,11.89
2023-04-16T11:02:19.728Z,11.91
2023-04-16T11:04:48.506Z,11.91
2023-04-16T11:07:21.756Z,11.93
2023-04-16T11:09:51.495Z,11.96
2023-04-16T11:12:20.641Z,11.98
2023-04-16T11:14:50.092Z,12.01
2023-04-16T11:17:17.190Z,11.95
2023-04-16T11:19:44.481Z,12.02
2023-04-16T11:22:17.304Z,12.04
2023-04-16T11:24:47.907Z,12.11
2023-04-16T11:27:16.202Z,12.12
2023-04-16T11:29:45.086Z,12.20
2023-04-16T11:32:21.768Z,12.28
2023-04-16T11:34:48.634Z,12.35
2023-04-16T11:37:15.607Z,12.40
2023-04-16T11:39:49.834Z,12.51
2023-04-16T11:42:22.657Z,12.59
2023-04-16T11:44:57.384Z,12.64
2023-04-16T11:47:25.155Z,12.71
2023-04-16T11:49:52.281Z,12.77
2023-04-16T11:52:29.962Z,12.80
2023-04-16T11:54:57.659Z,12.84
2023-04-16T11:57:31.582Z,12.87
2023-04-16T12:00:01.763Z,12.90
2023-04-16T12:02:42.732Z,12.90
2023-04-16T12:05:35.804Z,12.90
2023-04-16T12:08:04.693Z,12.86
2023-04-16T12:10:35.357Z,12.90
2023-04-16T12:13:16.477Z,12.89
2023-04-16T12:15:53.863Z,12.88
2023-04-16T12:18:23.671Z,12.86
2023-04-16T12:20:53.368Z,12.84
2023-04-16T12:23:29.457Z,12.84
2023-04-16T12:25:59.790Z,12.83
2023-04-16T12:28:38.497Z,12.81
2023-04-16T12:31:06.046Z,12.78
2023-04-16T12:33:32.892Z,12.74
2023-04-16T12:35:59.862Z,12.73
2023-04-16T12:38:27.428Z,12.73
2023-04-16T12:40:57.273Z,12.71
2023-04-16T12:43:25.120Z,12.71
2023-04-16T12:45:51.886Z,12.69
2023-04-16T12:48:18.646Z,12.69
2023-04-16T12:50:46.309Z,12.65
2023-04-16T12:53:13.272Z,12.64
2023-04-16T12:55:40.100Z,12.64
2023-04-16T12:58:06.949Z,12.60
2023-04-16T13:00:33.733Z,12.56
2023-04-16T13:03:00.639Z,12.51
2023-04-16T13:05:27.665Z,12.47
2023-04-16T13:07:54.635Z,12.47
2023-04-16T13:10:22.297Z,12.45
2023-04-16T13:12:49.268Z,12.42
2023-04-16T13:15:16.196Z,12.42
2023-04-16T13:17:43.049Z,12.39
2023-04-16T13:20:10.646Z,12.36
2023-04-16T13:22:37.770Z,12.36
2023-04-16T13:25:05.477Z,12.34
2023-04-16T13:27:32.711Z,12.33
2023-04-16T13:29:59.721Z,12.30
2023-04-16T13:32:26.745Z,12.28
2023-04-16T13:34:53.698Z,12.27
2023-04-16T13:37:20.436Z,12.26
2023-04-16T13:39:47.424Z,12.27
2023-04-16T13:42:14.443Z,12.28
2023-04-16T13:44:41.563Z,12.29
2023-04-16T13:47:09.164Z,12.29
2023-04-16T13:49:36.329Z,12.32
2023-04-16T13:52:03.511Z,12.31
2023-04-16T13:54:30.334Z,12.34
2023-04-16T13:56:57.333Z,12.36
2023-04-16T13:59:24.427Z,12.38
2023-04-16T14:01:51.673Z,12.36
2023-04-16T14:04:18.955Z,12.36
2023-04-16T14:06:46.054Z,12.34
2023-04-16T14:09:13.013Z,12.35
2023-04-16T14:11:40.159Z,12.31
2023-04-16T14:14:06.968Z,12.29
2023-04-16T14:16:34.603Z,12.27
2023-04-16T14:19:01.694Z,12.28
2023-04-16T14:21:28.861Z,12.28
2023-04-16T14:23:55.564Z,12.28
2023-04-16T14:26:22.720Z,12.25
2023-04-16T14:28:51.211Z,12.24
2023-04-16T14:31:20.022Z,12.25
2023-04-16T14:33:47.175Z,12.25
2023-04-16T14:36:14.425Z,12.23
2023-04-16T14:38:43.257Z,12.23
2023-04-16T14:41:12.652Z,12.27
2023-04-16T14:43:41.547Z,12.28
2023-04-16T14:46:08.485Z,12.33
2023-04-16T14:48:35.339Z,12.34
2023-04-16T14:51:02.436Z,12.31
2023-04-16T14:53:30.080Z,12.31
2023-04-16T14:55:59.386Z,12.37
2023-04-16T14:58:26.618Z,12.36
2023-04-16T15:00:53.904Z,12.36
2023-04-16T15:03:21.271Z,12.36
2023-04-16T15:05:55.555Z,12.39
2023-04-16T15:08:23.510Z,12.39
2023-04-16T15:10:51.381Z,12.41
2023-04-16T15:13:18.273Z,12.38
2023-04-16T15:15:45.779Z,12.38
2023-04-16T15:18:12.670Z,12.40
2023-04-16T15:20:39.540Z,12.39
2023-04-16T15:23:08.178Z,12.34
2023-04-16T15:25:35.116Z,12.35
2023-04-16T15:28:03.163Z,12.33
2023-04-16T15:30:31.580Z,12.33
2023-04-16T15:33:00.177Z,12.34
2023-04-16T15:35:27.639Z,12.32
2023-04-16T15:37:55.852Z,12.34
2023-04-16T15:40:23.410Z,12.33
2023-04-16T15:42:51.025Z,12.31
2023-04-16T15:45:19.155Z,12.28
2023-04-16T15:47:51.641Z,12.24
2023-04-16T15:50:20.433Z,12.25
2023-04-16T15:52:49.178Z,12.23
2023-04-16T15:55:17.891Z,12.21
2023-04-16T15:57:44.982Z,12.19
2023-04-16T16:00:17.683Z,12.19
2023-04-16T16:02:47.480Z,12.14
2023-04-16T16:05:16.204Z,12.10
2023-04-16T16:07:44.113Z,12.09
2023-04-16T16:10:13.272Z,12.09
2023-04-16T16:12:41.416Z,12.08
2023-04-16T16:15:09.582Z,12.07
2023-04-16T16:17:36.977Z,12.07
2023-04-16T16:20:04.600Z,12.04
2023-04-16T16:22:32.335Z,12.03
2023-04-16T16:24:59.467Z,12.02
2023-04-16T16:27:28.132Z,11.99
2023-04-16T16:29:55.333Z,11.98
2023-04-16T16:32:22.662Z,11.94
2023-04-16T16:34:50.686Z,11.91
2023-04-16T16:37:17.997Z,11.94
2023-04-16T16:39:45.326Z,11.90
2023-04-16T16:42:12.707Z,11.88
2023-04-16T16:44:40.742Z,11.89
2023-04-16T16:47:07.754Z,11.84
2023-04-16T16:49:35.048Z,11.80
2023-04-16T16:52:02.418Z,11.80
2023-04-16T16:54:29.518Z,11.78
2023-04-16T16:56:56.927Z,11.77
2023-04-16T16:59:24.306Z,11.71
2023-04-16T17:01:51.130Z,11.69
2023-04-16T17:04:20.340Z,11.69
2023-04-16T17:06:47.968Z,11.65
2023-04-16T17:09:15.270Z,11.57
2023-04-16T17:11:42.670Z,11.60
2023-04-16T17:14:10.190Z,11.57
2023-04-16T17:16:37.727Z,11.57
2023-04-16T17:19:05.258Z,11.55
2023-04-16T17:21:35.546Z,11.53
2023-04-16T17:24:03.284Z,11.51
2023-04-16T17:26:32.331Z,11.49
2023-04-16T17:29:01.022Z,11.45
2023-04-16T17:31:28.764Z,11.44
2023-04-16T17:33:57.273Z,11.40
2023-04-16T17:36:25.915Z,11.40
2023-04-16T17:38:53.952Z,11.41
2023-04-16T17:41:22.852Z,11.38
2023-04-16T17:43:51.422Z,11.37
2023-04-16T17:46:19.086Z,11.36
2023-04-16T17:48:48.481Z,11.33
2023-04-16T17:51:16.734Z,11.32
2023-04-16T17:53:45.040Z,11.29
2023-04-16T17:56:13.088Z,11.22
2023-04-16T17:58:40.908Z,11.25
2023-04-16T18:01:08.389Z,11.21
2023-04-16T18:03:36.262Z,11.22
2023-04-16T18:06:04.859Z,11.23
2023-04-16T18:08:33.361Z,11.20
2023-04-16T18:11:00.462Z,11.18
2023-04-16T18:13:27.997Z,11.16
2023-04-16T18:15:55.532Z,11.12
2023-04-16T18:18:23.211Z,11.15
2023-04-16T18:20:50.587Z,11.11
2023-04-16T18:23:18.081Z,11.13
2023-04-16T18:25:45.572Z,11.11
2023-04-16T18:28:14.262Z,11.08
2023-04-16T18:30:42.694Z,11.06
2023-04-16T18:35:41.594Z,11.10
2023-04-16T18:38:09.268Z,11.09
2023-04-16T18:40:38.095Z,11.07
2023-04-16T18:43:05.549Z,11.06
2023-04-16T18:45:34.368Z,11.06
2023-04-16T18:48:04.158Z,11.05
2023-04-16T18:50:33.214Z,11.04
2023-04-16T18:53:01.342Z,11.02
2023-04-16T18:55:30.656Z,11.02
2023-04-16T18:57:58.794Z,11.00
2023-04-16T19:00:27.515Z,10.98
2023-04-16T19:02:56.283Z,10.97
2023-04-16T19:05:23.694Z,10.95
2023-04-16T19:07:50.521Z,10.95
2023-04-16T19:10:18.042Z,10.92
2023-04-16T19:12:45.464Z,10.89
2023-04-16T19:15:12.605Z,10.87
2023-04-16T19:17:40.003Z,10.84
2023-04-16T19:20:11.293Z,10.83
2023-04-16T19:22:39.198Z,10.82
2023-04-16T19:25:07.897Z,10.77
2023-04-16T19:27:35.706Z,10.75
2023-04-16T19:30:04.149Z,10.72
2023-04-16T19:32:31.684Z,10.69
2023-04-16T19:34:59.267Z,10.68
2023-04-16T19:37:27.769Z,10.65
2023-04-16T19:39:55.533Z,10.63
2023-04-16T19:42:23.234Z,10.62
2023-04-16T19:44:51.171Z,10.63
2023-04-16T19:47:21.092Z,10.59
2023-04-16T19:49:48.599Z,10.59
2023-04-16T19:52:17.232Z,10.56
2023-04-16T19:54:45.056Z,10.54
2023-04-16T19:57:12.357Z,10.49
2023-04-16T19:59:40.358Z,10.47
2023-04-16T20:02:07.794Z,10.48
2023-04-16T20:04:35.787Z,10.42
2023-04-16T20:07:03.623Z,10.44
2023-04-16T20:09:33.955Z,10.42
2023-04-16T20:12:03.119Z,10.40
2023-04-16T20:14:31.118Z,10.41
2023-04-16T20:16:58.044Z,10.39
2023-04-16T20:19:31.906Z,10.34
2023-04-16T20:21:59.014Z,10.34
2023-04-16T20:24:27.052Z,10.34
2023-04-16T20:26:57.456Z,10.35
2023-04-16T20:29:24.368Z,10.33
2023-04-16T20:31:51.191Z,10.31
2023-04-16T20:34:18.562Z,10.34
2023-04-16T20:36:46.060Z,10.33
2023-04-16T20:39:13.579Z,10.32
2023-04-16T20:41:44.187Z,10.30
2023-04-16T20:44:19.268Z,10.29
2023-04-16T20:46:49.789Z,10.28
2023-04-16T20:49:18.930Z,10.27
2023-04-16T20:51:46.112Z,10.26
2023-04-16T20:54:12.970Z,10.24
2023-04-16T20:56:39.890Z,10.23
2023-04-16T20:59:06.717Z,10.24
2023-04-16T21:01:33.943Z,10.24
2023-04-16T21:04:01.572Z,10.21
2023-04-16T21:06:32.824Z,10.18
2023-04-16T21:08:59.819Z,10.18
2023-04-16T21:11:27.154Z,10.13
2023-04-16T21:13:53.924Z,10.14
2023-04-16T21:16:20.812Z,10.13
2023-04-16T21:18:47.572Z,10.11
2023-04-16T21:21:14.583Z,10.07
2023-04-16T21:23:41.314Z,10.10
2023-04-16T21:26:08.063Z,10.08
2023-04-16T21:28:34.861Z,10.07
2023-04-16T21:31:01.721Z,10.06
2023-04-16T21:33:28.798Z,10.03
2023-04-16T21:35:55.682Z,10.05
2023-04-16T21:38:22.772Z,10.01
2023-04-16T21:40:51.308Z,10.04
2023-04-16T21:43:18.061Z,10.02
2023-04-16T21:45:44.790Z,10.03
2023-04-16T21:48:12.248Z,10.02
2023-04-16T21:50:39.055Z,9.99
2023-04-16T21:53:06.735Z,10.00
2023-04-16T21:55:34.810Z,9.99
2023-04-16T21:58:02.591Z,9.99
2023-04-16T22:00:29.836Z,9.95
2023-04-16T22:02:56.777Z,9.97
2023-04-16T22:05:24.162Z,9.95
2023-04-16T22:07:51.199Z,9.98
2023-04-16T22:10:18.372Z,9.96
2023-04-16T22:12:45.816Z,9.95
2023-04-16T22:15:13.913Z,9.96
2023-04-16T22:17:40.907Z,9.95
2023-04-16T22:20:14.808Z,9.92
2023-04-16T22:22:42.706Z,9.90
2023-04-16T22:25:10.079Z,9.91
2023-04-16T22:27:37.454Z,9.85
2023-04-16T22:30:06.257Z,9.88
2023-04-16T22:32:33.564Z,9.84
2023-04-16T22:35:00.804Z,9.87
2023-04-16T22:37:27.575Z,9.83
2023-04-16T22:39:54.390Z,9.82
2023-04-16T22:42:21.576Z,9.78
2023-04-16T22:44:48.326Z,9.76
2023-04-16T22:47:15.272Z,9.75
2023-04-16T22:49:41.970Z,9.73
2023-04-16T22:52:08.914Z,9.72
2023-04-16T22:54:35.686Z,9.69
2023-04-16T22:57:02.527Z,9.67
2023-04-16T22:59:29.226Z,9.68
2023-04-16T23:01:56.121Z,9.66
2023-04-16T23:04:23.013Z,9.67
2023-04-16T23:06:49.772Z,9.63
2023-04-16T23:09:17.054Z,9.56
2023-04-16T23:11:43.806Z,9.59
2023-04-16T23:14:10.566Z,9.57
2023-04-16T23:16:37.338Z,9.54
2023-04-16T23:19:04.119Z,9.50
2023-04-16T23:21:31.365Z,9.51
2023-04-16T23:23:59.204Z,9.48
2023-04-16T23:26:26.002Z,9.44
2023-04-16T23:28:52.788Z,9.40
2023-04-16T23:31:19.553Z,9.38
2023-04-16T23:33:46.340Z,9.41
2023-04-16T23:36:13.085Z,9.37
2023-04-16T23:38:39.936Z,9.33
2023-04-16T23:41:07.008Z,9.34
2023-04-16T23:43:35.096Z,9.31
2023-04-16T23:46:02.744Z,9.34
2023-04-16T23:48:29.506Z,9.34
2023-04-16T23:50:56.249Z,9.34
2023-04-16T23:53:23.075Z,9.31
2023-04-16T23:55:50.153Z,9.30
2023-04-16T23:58:16.906Z,9.28
